AirNav   Everest Fuels
 
 1639 users online  

26MA Pepperell Airport
Pepperell, Massachusetts, USA

GOING TO PEPPERELL?


FAA INFORMATION EFFECTIVE 03 NOVEMBER 2022

Location

FAA Identifier: 26MA
Lat/Long: 42-41-46.3000N 071-33-00.2000W
42-41.771667N 071-33.003333W
42.6961944,-71.5500556
(estimated)
Elevation: 176 ft. / 54 m (estimated)
Variation: 16W (1985)
From city: 3 miles NE of PEPPERELL, MA
Time zone: UTC -5 (UTC -4 during Daylight Saving Time)
Zip code: 01463

Airport Operations

Airport use: Private use. Permission required prior to landing
Control tower: no
ARTCC: BOSTON CENTER
FSS: BRIDGEPORT FLIGHT SERVICE STATION
Attendance: 0800-DUSK
Wind indicator: yes
Segmented circle: no

Airport Communications

UNICOM: 123.05
WX AWOS-3PT at ASH (5 nm N): 125.1 (603-578-0473)
WX ASOS at FIT (13 nm SW): 135.175 (978-343-9121)
WX ASOS at MHT (15 nm N): 119.55 (603-621-1766)
WX ASOS at BED (18 nm SE): 124.6 (781-274-9733)
WX ASOS at LWM (19 nm E): PHONE 978-687-8017

Nearby radio navigation aids

VOR radial/distance  VOR name  Freq  Var
MHTr233/13.0MANCHESTER VOR/DME114.4015W
GDMr082/24.2GARDNER VOR/DME110.6014W
CONr193/31.4CONCORD VOR/DME112.9015W
BOSr325/32.1BOSTON VOR/DME112.7016W

 
NDB name  Hdg/Dist  Freq  Var  ID
FITZY200/10.120915WMJ -- .---

Airport Services

Fuel available: A
Parking: tiedowns
Airframe service: MINOR
Powerplant service: MINOR

Runway Information

Runway 6/24

Dimensions: 2820 x 25 ft. / 860 x 8 m
Surface: asphalt, in good condition
Weight bearing capacity: 
Single wheel: 8.0
RUNWAY 6  RUNWAY 24
Traffic pattern: leftleft
Markings: none
Obstructions: 100 ft. trees, 600 ft. from runway, 88 ft. right of centerline, 4:1 slope to clear47 ft. trees, 650 ft. from runway, 9:1 slope to clear

Airport Ownership and Management from official FAA records

Ownership: Privately-owned
Owner: PEPPERELL AIRPORT TRUST
165 NASHUA RD
PEPPERELL, MA 01463
Phone 978-433-8550
Manager: DONALD V MAYER II
165 NASHUA RD
PEPPERELL, MA 01463
Phone 978-433-8550
CELL: 603-897-5326

Airport Operational Statistics

Aircraft based on the field: 5
Single engine airplanes: 3
Multi engine airplanes: 1
Ultralights: 1
    
Aircraft operations: avg 100/week *
95% local general aviation
5% transient general aviation
<1% military
* for 12-month period ending 10 February 1997

Additional Remarks

GLIDER ACTIVITY 0800-SS DAILY.
SKYDIVING ACTIVITY 0800-SS DAILY.
FOR CD CTC BOSTON APCH AT 603-594-5551.

Instrument Procedures

There are no published instrument procedures at 26MA.

Some nearby airports with instrument procedures:

KASH - Boire Field Airport (5 nm N)
KFIT - Fitchburg Municipal Airport (13 nm SW)
6B6 - Minute Man Air Field (14 nm S)
KMHT - Manchester Boston Regional Airport (15 nm N)
KBED - Laurence G Hanscom Field Airport (18 nm SE)
KLWM - Lawrence Municipal Airport (19 nm E)
 
Loc | Ops | Rwys | IFR | FBO | Links
Com | Nav | Svcs | Stats | Notes
Area around 26MA (Pepperell Airport)
 
Road maps at: MapQuest Bing Google
 
Aerial photo
WARNING: Photo may not be current or correct
Aerial photo of 26MA (Pepperell Airport)
Photo courtesy of Bruce Vinal, Aerial Perspectives
Photo taken 07-Aug-2010

Do you have a better or more recent aerial photo of Pepperell Airport that you would like to share? If so, please send us your photo.

 
Sectional chart

 
Airport distance calculator
Flying to Pepperell Airport? Find the distance to fly.

From to 26MA

Sunrise and sunset
Times for 29-Nov-2022
 Local
(UTC-5)
 Zulu
(UTC)
Morning civil twilight06:2411:24
Sunrise06:5611:56
Sunset16:1321:13
Evening civil twilight16:4521:45

Current date and time
Zulu (UTC)  29-Nov-2022 15:53:41
Local (UTC-5)  29-Nov-2022 10:53:41
 
METAR
KASH 
4nm N 
291456Z 35004KT 10SM OVC030 02/M01 A3031 RMK AO2 SLP271 T00171006 51025
KFIT 
12nm SW 
291532Z AUTO 33004KT 10SM OVC030 02/M06 A3031 RMK AO2 T00221061
KMHT 
15nm N 
291453Z 00000KT 10SM BKN030 02/M05 A3029 RMK AO2 SLP276 T00171050 51028
KBED 
18nm SE 
291451Z 32004KT 10SM OVC034 02/M04 A3029 RMK AO2 SLP273 T00221039 51024
KLWM 
18nm E 
291454Z 35004KT 10SM OVC034 02/M04 A3032 RMK AO2 SLP267 T00171039 51026
TAF
KMHT 
15nm N 
291414Z 2914/3012 VRB04KT P6SM OVC028 FM291800 16004KT P6SM SCT025 BKN035 FM292300 VRB03KT P6SM BKN025 FM300700 VRB03KT P6SM VCSH SCT010 BKN025
KBED 
18nm SE 
291121Z 2912/3012 35003KT P6SM FEW200 FM300900 00000KT P6SM OVC020
NOTAMs
Click for the latest NOTAMs
NOTAMs are issued by the DoD/FAA and will open in a separate window not controlled by AirNav.

 

 
 

Would you like to see your business listed on this page?

 If your business provides an interesting product or service to pilots, flight crews, aircraft, or users of the Pepperell Airport, you should consider listing it here.  To start the listing process, click on the button below
 
Add a business
 

Other Pages about Pepperell Airport

Update a link
 
Copyright © AirNav, LLC. All rights reserved. Privacy Policy  Contact